Time;durP1;ratioP1;P1;durP2;ratioP2;P2;SDS_P1;SDS_P2;PMS_P1;PMS_P2;Temp;Humidity;BMP_temperature;BMP_pressure;BME280_temperature;BME280_humidity;BME280_pressure;Samples;Min_cycle;Max_cycle;Signal;HPM_P1;HPM_P2
2023/09/12 00:02:16;;;;;;;62.40;31.30;;;;;;;19.75;100.00;101105.59;5001773;28;20637;-78
2023/09/12 00:04:43;;;;;;;60.53;32.78;;;;;;;19.77;100.00;101103.69;5004162;28;20049;-75
2023/09/12 00:07:12;;;;;;;77.40;36.50;;;;;;;19.75;100.00;101125.19;5002783;28;20100;-73
2023/09/12 00:09:39;;;;;;;75.55;35.65;;;;;;;19.75;100.00;101156.41;5006017;28;20042;-73
2023/09/12 00:12:07;;;;;;;79.78;36.25;;;;;;;19.80;100.00;101167.69;5001797;28;20049;-73
2023/09/12 00:14:35;;;;;;;84.50;38.55;;;;;;;19.85;100.00;101185.19;5005951;28;21336;-73
2023/09/12 00:17:02;;;;;;;84.43;37.63;;;;;;;19.88;100.00;101210.03;5038166;28;20155;-73
2023/09/12 00:19:29;;;;;;;88.63;39.15;;;;;;;19.86;100.00;101219.00;5020727;28;20108;-75
2023/09/12 00:21:56;;;;;;;58.72;31.63;;;;;;;19.85;100.00;101228.00;5017188;28;20581;-76
2023/09/12 00:24:23;;;;;;;79.30;35.65;;;;;;;19.88;100.00;101218.06;5006555;28;20059;-75
2023/09/12 00:26:50;;;;;;;63.55;31.67;;;;;;;19.88;100.00;101194.00;5005487;28;20633;-75
2023/09/12 00:29:17;;;;;;;67.65;35.08;;;;;;;19.95;100.00;101133.75;5005397;28;20069;-75
2023/09/12 00:31:45;;;;;;;66.50;34.85;;;;;;;19.89;100.00;101127.00;5003010;28;20042;-76
2023/09/12 00:34:17;;;;;;;72.43;36.75;;;;;;;19.77;100.00;101128.63;5019161;28;20189;-75
2023/09/12 00:36:44;;;;;;;98.72;40.72;;;;;;;19.76;100.00;101131.38;5005392;28;20034;-74
2023/09/12 00:39:11;;;;;;;91.05;40.08;;;;;;;19.73;100.00;101135.13;5006233;28;20084;-74
2023/09/12 00:41:38;;;;;;;93.30;41.67;;;;;;;19.69;100.00;101123.75;5012434;28;20042;-73
2023/09/12 00:44:06;;;;;;;92.47;38.90;;;;;;;19.64;100.00;101119.66;5035016;28;20046;-74
2023/09/12 00:46:34;;;;;;;73.32;36.65;;;;;;;19.59;100.00;101119.97;5003681;28;20155;-73
2023/09/12 00:49:06;;;;;;;96.70;39.80;;;;;;;19.59;100.00;101121.75;5020614;28;20464;-73
2023/09/12 00:51:35;;;;;;;91.82;38.85;;;;;;;19.58;100.00;101112.06;5019504;28;20672;-73
2023/09/12 00:54:04;;;;;;;163.15;41.90;;;;;;;19.56;100.00;101120.16;5006181;28;20065;-73
2023/09/12 00:56:32;;;;;;;103.10;41.15;;;;;;;19.53;100.00;101120.38;5003727;28;20045;-73
2023/09/12 00:59:02;;;;;;;92.95;39.30;;;;;;;19.51;100.00;101114.25;5015742;28;20060;-73
2023/09/12 01:01:33;;;;;;;104.72;39.75;;;;;;;19.48;100.00;101112.66;5004247;28;20046;-73
2023/09/12 01:04:01;;;;;;;115.85;41.42;;;;;;;19.45;100.00;101111.94;4999416;28;20132;-73
2023/09/12 01:06:32;;;;;;;97.53;41.13;;;;;;;19.43;100.00;101106.72;5000619;28;20042;-73
2023/09/12 01:09:00;;;;;;;144.95;44.25;;;;;;;19.40;100.00;101110.44;5022424;28;20132;-73
2023/09/12 01:11:28;;;;;;;143.23;44.55;;;;;;;19.39;100.00;101113.19;5004540;28;20045;-73
2023/09/12 01:13:56;;;;;;;128.65;45.15;;;;;;;19.36;100.00;101111.59;4998322;28;20117;-72
2023/09/12 01:16:23;;;;;;;121.85;43.90;;;;;;;19.36;100.00;101116.94;5006548;28;20054;-72
2023/09/12 01:18:50;;;;;;;104.35;40.88;;;;;;;19.34;100.00;101118.84;5020102;28;20054;-73
2023/09/12 01:22:04;;;;;;;120.40;44.47;;;;;;;19.34;100.00;101124.19;5004364;28;20077;-73
2023/09/12 01:25:11;;;;;;;110.93;43.93;;;;;;;19.31;100.00;101123.53;4998483;28;20045;-72
2023/09/12 01:27:43;;;;;;;116.85;43.05;;;;;;;19.29;100.00;101122.75;5003219;28;20365;-72
2023/09/12 01:30:10;;;;;;;122.07;45.05;;;;;;;19.28;100.00;101119.25;5020444;28;20058;-72
2023/09/12 01:32:38;;;;;;;107.30;41.70;;;;;;;19.25;100.00;101116.75;5003942;28;20131;-72
2023/09/12 01:35:08;;;;;;;105.65;40.50;;;;;;;19.23;100.00;101119.53;4995254;28;20045;-72
2023/09/12 01:37:35;;;;;;;112.95;41.15;;;;;;;19.21;100.00;101128.59;4998556;28;20553;-72
2023/09/12 01:40:03;;;;;;;151.30;44.63;;;;;;;19.20;100.00;101126.88;5003297;28;20050;-73
2023/09/12 01:42:43;;;;;;;109.90;40.35;;;;;;;19.18;100.00;101115.41;5018879;28;20065;-72
2023/09/12 01:45:16;;;;;;;140.20;43.72;;;;;;;19.18;100.00;101118.09;5004389;28;20038;-73
2023/09/12 01:47:47;;;;;;;101.53;40.35;;;;;;;19.17;100.00;101111.91;5016931;28;20038;-73
2023/09/12 01:50:16;;;;;;;115.25;42.08;;;;;;;19.20;100.00;101108.19;4998035;28;20588;-73
2023/09/12 01:52:44;;;;;;;112.50;40.70;;;;;;;19.20;100.00;101106.34;5013353;28;20038;-73
2023/09/12 01:55:12;;;;;;;118.78;40.17;;;;;;;19.20;100.00;101106.34;5003408;28;20041;-75
2023/09/12 01:57:40;;;;;;;116.95;41.97;;;;;;;19.19;100.00;101101.97;5018999;28;20034;-75
2023/09/12 02:00:09;;;;;;;98.07;37.60;;;;;;;19.18;100.00;101102.91;5000472;28;20042;-75
2023/09/12 02:02:36;;;;;;;108.93;40.17;;;;;;;19.17;100.00;101103.88;5013081;28;20128;-75
2023/09/12 02:05:18;;;;;;;106.30;38.90;;;;;;;19.14;100.00;101100.53;5004210;28;20046;-75
2023/09/12 02:07:46;;;;;;;100.18;39.65;;;;;;;19.12;100.00;101094.44;5012634;28;20502;-75
2023/09/12 02:10:14;;;;;;;98.38;38.50;;;;;;;19.11;100.00;101096.25;5003110;28;20505;-75
2023/09/12 02:12:41;;;;;;;95.00;38.75;;;;;;;19.09;100.00;101100.81;4997501;28;20120;-75
2023/09/12 02:15:09;;;;;;;117.75;40.42;;;;;;;19.07;100.00;101102.75;5002674;28;20402;-75
2023/09/12 02:17:38;;;;;;;101.97;38.55;;;;;;;19.03;100.00;101102.03;5005330;28;20070;-75
2023/09/12 02:20:10;;;;;;;89.25;35.85;;;;;;;19.01;100.00;101108.44;5002723;28;20533;-75
2023/09/12 02:22:37;;;;;;;96.72;37.60;;;;;;;18.98;100.00;101112.19;5017023;28;20053;-74
2023/09/12 02:25:06;;;;;;;115.05;39.42;;;;;;;18.97;100.00;101118.47;5000867;28;20059;-73
2023/09/12 02:27:33;;;;;;;80.32;35.65;;;;;;;18.94;100.00;101118.66;5016744;28;20537;-72
2023/09/12 02:30:00;;;;;;;86.47;35.42;;;;;;;18.93;100.00;101123.16;5002470;28;20501;-73
2023/09/12 02:32:27;;;;;;;88.85;35.63;;;;;;;18.97;100.00;101130.97;5001704;28;20141;-72
2023/09/12 02:34:56;;;;;;;85.35;36.15;;;;;;;18.98;100.00;101127.31;5003618;28;20670;-72
2023/09/12 02:37:24;;;;;;;102.38;39.47;;;;;;;19.02;100.00;101126.19;4987997;28;20038;-73
2023/09/12 02:39:51;;;;;;;116.78;39.42;;;;;;;19.03;100.00;101119.91;5001174;28;20049;-73
2023/09/12 02:42:18;;;;;;;140.38;43.33;;;;;;;19.02;100.00;101121.72;5003683;28;20046;-72
2023/09/12 02:44:45;;;;;;;161.45;45.72;;;;;;;18.99;100.00;101115.69;5003721;28;20625;-72
2023/09/12 02:47:13;;;;;;;110.90;42.55;;;;;;;18.95;100.00;101125.72;5002933;28;20501;-72
2023/09/12 02:49:40;;;;;;;99.15;40.05;;;;;;;18.93;100.00;101127.59;4986013;28;20042;-72
2023/09/12 02:52:07;;;;;;;100.43;39.17;;;;;;;18.91;100.00;101127.69;5019239;28;20123;-72
2023/09/12 02:54:34;;;;;;;105.53;39.65;;;;;;;18.89;100.00;101134.91;5000589;28;20046;-72
2023/09/12 02:57:01;;;;;;;104.72;41.25;;;;;;;18.84;100.00;101139.69;5003207;28;20601;-73
2023/09/12 02:59:29;;;;;;;117.22;40.78;;;;;;;18.84;100.00;101138.81;5016741;28;20497;-73
2023/09/12 03:01:56;;;;;;;100.45;38.90;;;;;;;18.82;100.00;101136.25;5004320;28;20100;-73
2023/09/12 03:04:28;;;;;;;107.90;40.28;;;;;;;18.84;100.00;101138.81;5017427;28;20042;-73
2023/09/12 03:06:55;;;;;;;107.53;41.25;;;;;;;18.85;100.00;101140.53;5001237;28;20449;-73
2023/09/12 03:09:24;;;;;;;100.75;39.60;;;;;;;18.84;100.00;101136.16;5002185;28;20045;-73
2023/09/12 03:11:51;;;;;;;173.35;46.92;;;;;;;18.85;100.00;101132.53;5002801;28;20069;-72
2023/09/12 03:14:18;;;;;;;186.10;48.95;;;;;;;18.85;100.00;101121.84;5002939;28;20046;-72
2023/09/12 03:16:45;;;;;;;143.98;47.17;;;;;;;18.86;100.00;101123.56;5033857;28;20596;-73
2023/09/12 03:19:12;;;;;;;160.25;47.70;;;;;;;18.87;100.00;101127.97;5005580;28;20058;-72
2023/09/12 03:21:40;;;;;;;347.45;58.50;;;;;;;18.88;100.00;101119.84;5003033;28;20129;-72
2023/09/12 03:24:07;;;;;;;327.80;58.15;;;;;;;18.90;100.00;101119.78;5006344;28;20680;-72
2023/09/12 03:26:36;;;;;;;245.48;52.78;;;;;;;18.90;100.00;101128.63;5003510;28;20048;-73
2023/09/12 03:29:04;;;;;;;206.35;52.35;;;;;;;18.91;100.00;101127.69;5005175;28;20057;-73
2023/09/12 03:31:32;;;;;;;285.23;55.92;;;;;;;18.94;100.00;101126.66;5005145;28;20054;-74
2023/09/12 03:33:59;;;;;;;168.50;50.10;;;;;;;18.97;100.00;101123.81;5006668;28;20113;-74
2023/09/12 03:36:26;;;;;;;375.88;57.70;;;;;;;18.99;100.00;101107.69;5003208;28;20454;-73
2023/09/12 03:38:54;;;;;;;574.10;71.13;;;;;;;18.99;100.00;101110.34;4986061;28;20465;-73
2023/09/12 03:41:25;;;;;;;770.55;74.85;;;;;;;18.96;100.00;101100.72;5039152;28;20100;-73
2023/09/12 03:43:55;;;;;;;441.27;65.30;;;;;;;18.94;100.00;101094.59;5003257;28;20038;-73
2023/09/12 03:46:22;;;;;;;399.50;57.33;;;;;;;18.93;100.00;101087.53;5008068;28;20053;-73
2023/09/12 03:48:50;;;;;;;376.63;58.63;;;;;;;18.91;100.00;101076.94;5006597;28;20581;-73
2023/09/12 03:51:18;;;;;;;568.35;62.25;;;;;;;18.92;100.00;101075.13;5020341;28;20115;-73
2023/09/12 03:53:47;;;;;;;699.42;76.63;;;;;;;18.91;100.00;101073.41;5004600;28;20038;-73
2023/09/12 03:56:15;;;;;;;460.33;56.58;;;;;;;18.90;100.00;101071.69;5000836;28;20038;-73
2023/09/12 03:58:42;;;;;;;405.20;55.20;;;;;;;18.90;100.00;101080.56;5005496;28;20034;-73
2023/09/12 04:01:10;;;;;;;904.42;83.82;;;;;;;18.89;100.00;101073.50;5005522;28;20132;-73
2023/09/12 04:03:37;;;;;;;484.02;59.03;;;;;;;18.85;100.00;101081.78;5005996;28;20052;-73
2023/09/12 04:06:05;;;;;;;313.80;51.30;;;;;;;18.82;100.00;101087.34;5003824;28;20043;-73
2023/09/12 04:08:32;;;;;;;485.80;55.38;;;;;;;18.81;100.00;101089.13;5018066;28;20132;-72
2023/09/12 04:11:00;;;;;;;339.23;51.35;;;;;;;18.77;100.00;101082.28;5037168;28;20038;-72
2023/09/12 04:13:27;;;;;;;456.75;61.30;;;;;;;18.74;100.00;101082.47;5003560;28;20037;-73
2023/09/12 04:15:54;;;;;;;577.45;60.85;;;;;;;18.72;100.00;101074.53;5003495;28;20034;-73
2023/09/12 04:18:21;;;;;;;814.28;80.97;;;;;;;18.72;100.00;101065.66;5005180;28;20049;-73
2023/09/12 04:20:49;;;;;;;163.20;44.67;;;;;;;18.70;100.00;101064.91;5005283;28;20125;-73
2023/09/12 04:23:16;;;;;;;262.10;51.10;;;;;;;18.72;100.00;101074.53;5002268;28;20092;-73
2023/09/12 04:25:46;;;;;;;504.83;57.13;;;;;;;18.74;100.00;101075.28;5003133;28;20060;-73
2023/09/12 04:28:14;;;;;;;683.70;70.93;;;;;;;18.70;100.00;101076.44;5001399;28;20129;-73
2023/09/12 04:30:41;;;;;;;666.78;71.60;;;;;;;18.66;100.00;101077.56;5003151;28;20454;-72
2023/09/12 04:33:13;;;;;;;471.65;60.90;;;;;;;18.62;100.00;101084.91;5018034;28;20073;-73
2023/09/12 04:35:41;;;;;;;220.50;53.33;;;;;;;18.61;100.00;101085.03;5002937;28;20433;-73
2023/09/12 04:38:09;;;;;;;539.03;70.70;;;;;;;18.63;100.00;101073.28;5016038;28;20425;-74
2023/09/12 04:40:37;;;;;;;390.83;56.63;;;;;;;18.63;100.00;101075.97;5003930;28;20500;-74
2023/09/12 04:43:04;;;;;;;284.92;51.72;;;;;;;18.62;100.00;101076.91;5005370;28;20098;-72
2023/09/12 04:45:33;;;;;;;175.85;44.25;;;;;;;18.62;100.00;101086.72;5003785;28;20073;-72
2023/09/12 04:48:00;;;;;;;139.00;46.80;;;;;;;18.61;100.00;101083.19;5020986;28;20078;-72
2023/09/12 04:50:39;;;;;;;484.08;61.97;;;;;;;18.63;100.00;101089.31;5004840;28;20038;-70
2023/09/12 04:53:07;;;;;;;208.98;52.13;;;;;;;18.60;100.00;101086.81;5017579;28;20050;-70
2023/09/12 04:55:37;;;;;;;508.45;69.25;;;;;;;18.62;100.00;101087.59;5006389;28;20405;-71
2023/09/12 04:58:05;;;;;;;284.92;55.05;;;;;;;18.62;100.00;101090.25;5005833;28;20052;-71
2023/09/12 05:00:33;;;;;;;209.07;48.92;;;;;;;18.60;100.00;101099.31;5003577;28;20145;-63
2023/09/12 05:03:03;;;;;;;138.60;44.67;;;;;;;18.61;100.00;101103.72;5005892;28;20053;-67
2023/09/12 05:05:33;;;;;;;254.85;49.25;;;;;;;18.62;100.00;101106.28;5003732;28;20555;-69
2023/09/12 05:08:01;;;;;;;248.85;55.60;;;;;;;18.61;100.00;101104.56;5000942;28;20042;-71
2023/09/12 05:10:28;;;;;;;252.13;56.20;;;;;;;18.59;100.00;101119.81;5001522;28;20064;-71
2023/09/12 05:12:55;;;;;;;277.20;58.25;;;;;;;18.60;100.00;101115.34;5006316;28;20038;-72
2023/09/12 05:15:23;;;;;;;192.07;57.85;;;;;;;18.60;100.00;101116.19;5001912;28;20450;-72
2023/09/12 05:17:50;;;;;;;174.63;54.78;;;;;;;18.64;100.00;101127.53;5016594;28;20498;-72
2023/09/12 05:20:18;;;;;;;152.02;51.88;;;;;;;18.69;100.00;101116.56;5001158;28;20041;-73
2023/09/12 05:22:45;;;;;;;258.35;62.78;;;;;;;18.72;100.00;101114.56;4998085;28;20533;-72
2023/09/12 05:25:12;;;;;;;165.82;53.28;;;;;;;18.75;100.00;101116.22;5005298;28;20053;-72
2023/09/12 05:27:39;;;;;;;202.73;56.97;;;;;;;18.75;100.00;101103.72;5002972;28;20050;-72
2023/09/12 05:30:07;;;;;;;171.63;54.80;;;;;;;18.75;100.00;101101.03;5003129;28;20060;-72
2023/09/12 05:32:34;;;;;;;146.23;51.35;;;;;;;18.76;100.00;101101.91;4997665;28;20042;-72
2023/09/12 05:35:01;;;;;;;152.77;52.95;;;;;;;18.74;100.00;101099.31;4995117;28;20042;-72
2023/09/12 05:37:47;;;;;;;129.13;47.05;;;;;;;18.74;100.00;101106.50;5001086;28;20192;-72
2023/09/12 05:40:14;;;;;;;131.60;46.97;;;;;;;18.74;100.00;101114.50;5001631;28;20044;-72
2023/09/12 05:42:42;;;;;;;153.52;53.35;;;;;;;18.76;100.00;101118.78;5015171;28;20153;-72
2023/09/12 05:45:10;;;;;;;131.93;46.45;;;;;;;18.77;100.00;101125.00;4985920;28;20049;-72
2023/09/12 05:47:37;;;;;;;99.45;41.80;;;;;;;18.75;100.00;101129.56;5001763;28;20042;-72
2023/09/12 05:50:07;;;;;;;104.28;42.63;;;;;;;18.73;100.00;101135.00;5002813;28;20053;-72
2023/09/12 05:52:35;;;;;;;107.28;43.92;;;;;;;18.75;100.00;101137.59;5005201;28;20564;-72
2023/09/12 05:55:02;;;;;;;104.25;44.45;;;;;;;18.74;100.00;101141.22;5001838;28;20674;-72
2023/09/12 05:57:33;;;;;;;98.97;45.17;;;;;;;18.74;100.00;101139.38;5005668;28;20525;-72
2023/09/12 06:00:00;;;;;;;99.18;40.50;;;;;;;18.75;100.00;101135.75;5016568;28;20092;-72
2023/09/12 06:02:39;;;;;;;90.95;41.55;;;;;;;18.75;100.00;101150.94;4999238;28;20034;-72
2023/09/12 06:05:07;;;;;;;71.65;36.53;;;;;;;18.76;100.00;101155.34;5018162;28;20205;-72
2023/09/12 06:07:35;;;;;;;74.85;37.60;;;;;;;18.78;100.00;101164.09;5004343;28;20076;-72
2023/09/12 06:10:03;;;;;;;74.75;40.05;;;;;;;18.77;100.00;101155.22;5002620;28;20128;-72
2023/09/12 06:12:32;;;;;;;85.18;41.28;;;;;;;18.74;100.00;101155.41;5003281;28;20045;-72
2023/09/12 06:15:00;;;;;;;77.68;36.72;;;;;;;18.73;100.00;101151.00;5003579;28;20408;-72
2023/09/12 06:17:27;;;;;;;82.47;39.42;;;;;;;18.73;100.00;101145.66;5005082;28;20042;-72
2023/09/12 06:19:55;;;;;;;93.53;42.75;;;;;;;18.75;100.00;101145.59;5007347;28;20575;-74
2023/09/12 06:22:22;;;;;;;84.25;40.88;;;;;;;18.75;100.00;101143.78;5002557;28;20450;-74
2023/09/12 06:24:51;;;;;;;77.38;40.38;;;;;;;18.76;100.00;101133.97;5002781;28;20046;-74
2023/09/12 06:27:21;;;;;;;77.28;40.38;;;;;;;18.75;100.00;101127.75;5002954;28;20112;-74
2023/09/12 06:29:49;;;;;;;81.75;42.03;;;;;;;18.74;100.00;101134.03;5002517;28;20073;-74
2023/09/12 06:32:19;;;;;;;82.60;40.53;;;;;;;18.76;100.00;101139.31;5003203;28;20050;-74
2023/09/12 06:34:47;;;;;;;82.13;38.70;;;;;;;18.78;100.00;101137.38;5005254;28;20527;-74
2023/09/12 06:37:14;;;;;;;88.45;41.42;;;;;;;18.80;100.00;101135.47;5002865;28;20053;-74
2023/09/12 06:39:41;;;;;;;95.32;42.42;;;;;;;18.83;100.00;101137.97;5002690;28;20402;-74
2023/09/12 06:42:09;;;;;;;63.00;36.35;;;;;;;18.86;100.00;101134.25;5004708;28;20064;-74
2023/09/12 06:44:36;;;;;;;84.53;41.90;;;;;;;18.87;100.00;101133.31;5003508;28;20112;-75
2023/09/12 06:47:05;;;;;;;84.22;41.60;;;;;;;18.86;100.00;101139.59;5001604;28;20569;-75
2023/09/12 06:49:32;;;;;;;87.65;42.90;;;;;;;18.85;100.00;101143.22;5017931;28;20396;-75
2023/09/12 06:52:02;;;;;;;100.70;43.85;;;;;;;18.84;100.00;101146.84;5002883;28;20533;-75
2023/09/12 06:54:29;;;;;;;94.22;41.28;;;;;;;18.84;100.00;101158.41;4999328;28;20049;-75
2023/09/12 06:56:56;;;;;;;88.57;38.65;;;;;;;18.82;100.00;101157.63;5004465;28;20517;-75
2023/09/12 06:59:24;;;;;;;90.03;39.40;;;;;;;18.84;100.00;101160.19;5006765;28;20042;-75
2023/09/12 07:01:51;;;;;;;90.00;40.00;;;;;;;18.85;100.00;101160.13;5007947;28;20042;-76
2023/09/12 07:04:18;;;;;;;59.63;36.17;;;;;;;18.88;100.00;101162.59;5011068;28;20597;-76
2023/09/12 07:06:45;;;;;;;84.10;40.65;;;;;;;18.93;100.00;101165.00;5008456;28;20688;-76
2023/09/12 07:09:14;;;;;;;65.97;37.25;;;;;;;18.99;100.00;101164.66;5005836;28;20076;-75
2023/09/12 07:11:42;;;;;;;82.53;40.63;;;;;;;19.08;100.00;101165.88;5004950;28;20034;-76
2023/09/12 07:14:09;;;;;;;76.18;38.80;;;;;;;19.17;100.00;101169.81;5006917;28;20190;-75
2023/09/12 07:16:37;;;;;;;79.43;39.30;;;;;;;19.20;100.00;101170.47;5007864;28;20506;-75
2023/09/12 07:19:04;;;;;;;100.68;45.60;;;;;;;19.23;100.00;101162.28;5007837;28;20117;-75
2023/09/12 07:21:32;;;;;;;57.63;34.92;;;;;;;19.30;100.00;101157.44;5007875;28;20073;-75
2023/09/12 07:23:59;;;;;;;72.40;38.78;;;;;;;19.35;100.00;101160.66;4983146;28;20045;-75
2023/09/12 07:26:27;;;;;;;79.45;39.05;;;;;;;19.40;100.00;101168.38;5007289;28;20592;-75
2023/09/12 07:28:54;;;;;;;84.60;42.45;;;;;;;19.45;100.00;101168.97;5005367;28;20129;-75
2023/09/12 07:31:22;;;;;;;91.03;44.88;;;;;;;19.52;100.00;101154.25;5003305;28;20046;-75
2023/09/12 07:33:49;;;;;;;75.53;41.83;;;;;;;19.61;100.00;101155.50;5006235;28;20568;-75
2023/09/12 07:36:16;;;;;;;59.35;37.60;;;;;;;19.69;100.00;101157.66;5007779;28;20080;-75
2023/09/12 07:38:45;;;;;;;76.57;41.35;;;;;;;19.82;100.00;101166.63;5006249;28;20046;-75
2023/09/12 07:41:12;;;;;;;52.83;34.35;;;;;;;19.93;100.00;101155.28;5008428;28;20393;-75
2023/09/12 07:43:40;;;;;;;79.10;41.47;;;;;;;20.07;100.00;101156.19;5007479;28;20045;-75
2023/09/12 07:46:08;;;;;;;68.30;39.28;;;;;;;20.19;100.00;101154.53;5006968;28;20052;-75
2023/09/12 07:48:35;;;;;;;77.55;40.38;;;;;;;20.28;100.00;101151.25;5019804;28;20043;-75
2023/09/12 07:51:14;;;;;;;80.97;40.42;;;;;;;20.38;100.00;101149.66;5007623;28;20041;-75
2023/09/12 07:53:41;;;;;;;64.68;37.60;;;;;;;20.50;100.00;101147.97;5006657;28;20041;-75
2023/09/12 07:56:10;;;;;;;63.05;37.15;;;;;;;20.57;100.00;101149.25;5005712;28;20037;-75
2023/09/12 07:58:37;;;;;;;63.78;35.83;;;;;;;20.62;100.00;101149.81;5005001;28;20100;-75
2023/09/12 08:01:09;;;;;;;60.80;35.70;;;;;;;20.65;100.00;101151.44;5004355;28;20486;-75
2023/09/12 08:03:39;;;;;;;59.25;34.67;;;;;;;20.62;100.00;101159.66;5004580;28;20054;-74
2023/09/12 08:06:07;;;;;;;63.67;37.10;;;;;;;20.57;100.00;101151.94;5007991;28;20049;-74
2023/09/12 08:08:34;;;;;;;64.18;36.15;;;;;;;20.60;100.00;101151.75;5005109;28;20046;-74
2023/09/12 08:11:02;;;;;;;57.83;34.92;;;;;;;20.69;100.00;101147.59;5026996;28;20147;-75
2023/09/12 08:13:30;;;;;;;55.65;32.67;;;;;;;20.78;100.00;101155.03;5007696;28;20050;-74
2023/09/12 08:15:58;;;;;;;57.53;33.03;;;;;;;20.86;100.00;101159.84;4997478;28;20053;-74
2023/09/12 08:18:30;;;;;;;55.40;33.72;;;;;;;20.92;100.00;101171.94;4989729;28;20419;-74
2023/09/12 08:20:58;;;;;;;52.90;32.85;;;;;;;20.88;100.00;101168.63;5004396;28;20050;-74
2023/09/12 08:23:25;;;;;;;47.15;29.65;;;;;;;20.93;100.00;101169.19;4998966;28;20050;-74
2023/09/12 08:25:52;;;;;;;43.38;29.10;;;;;;;20.99;100.00;101151.81;5003364;28;20402;-74
2023/09/12 08:28:19;;;;;;;49.65;29.27;;;;;;;20.97;100.00;101153.75;5007511;28;20136;-74
2023/09/12 08:30:47;;;;;;;48.88;30.45;;;;;;;21.07;100.00;101159.31;5005197;28;20121;-74
2023/09/12 08:33:14;;;;;;;46.92;30.02;;;;;;;21.14;100.00;101162.44;5009529;28;20049;-74
2023/09/12 08:35:41;;;;;;;46.35;30.73;;;;;;;21.24;100.00;101163.50;5007074;28;20375;-74
2023/09/12 08:38:09;;;;;;;42.47;26.88;;;;;;;21.36;100.00;101168.00;5007175;28;20045;-74
2023/09/12 08:40:36;;;;;;;44.38;30.63;;;;;;;21.48;100.00;101178.81;5003206;28;20065;-74
2023/09/12 08:43:04;;;;;;;46.38;30.67;;;;;;;21.55;100.00;101188.13;5002537;28;20054;-74
2023/09/12 08:45:31;;;;;;;46.53;31.35;;;;;;;21.62;100.00;101184.06;5003438;28;21618;-74
2023/09/12 08:48:01;;;;;;;40.72;27.80;;;;;;;21.68;100.00;101189.00;5006236;28;20120;-75
2023/09/12 08:50:32;;;;;;;46.53;29.00;;;;;;;21.83;100.00;101183.47;5006529;28;20061;-74
2023/09/12 08:53:00;;;;;;;42.45;27.88;;;;;;;21.92;100.00;101180.16;4999163;28;20050;-75
2023/09/12 08:55:35;;;;;;;38.95;26.42;;;;;;;22.00;100.00;101177.75;5035213;28;20521;-74
2023/09/12 08:58:05;;;;;;;38.05;25.50;;;;;;;;;;5011750;28;20322;-74
2023/09/12 09:00:33;;;;;;;41.97;25.67;;;;;;;22.25;100.00;101188.50;5005514;28;20125;-74
2023/09/12 09:03:01;;;;;;;41.72;26.05;;;;;;;22.36;100.00;101199.31;5002722;28;20422;-74
2023/09/12 09:05:29;;;;;;;38.75;25.80;;;;;;;22.40;99.91;101208.00;5004651;28;20658;-74
2023/09/12 09:07:58;;;;;;;53.28;26.65;;;;;;;22.44;100.00;101215.72;5006533;28;20041;-74
2023/09/12 09:10:27;;;;;;;38.42;25.88;;;;;;;22.55;99.31;101219.44;5004689;28;20658;-74
2023/09/12 09:13:14;;;;;;;32.15;23.80;;;;;;;22.60;97.71;101218.13;5004919;28;20056;-74
2023/09/12 09:15:41;;;;;;;32.78;22.33;;;;;;;22.59;95.11;101219.09;5002160;28;20809;-74
2023/09/12 09:18:11;;;;;;;29.00;21.80;;;;;;;22.64;95.27;101224.97;5002580;28;20857;-74
2023/09/12 09:20:40;;;;;;;30.38;21.38;;;;;;;22.65;94.58;101228.53;5002796;28;20041;-74
2023/09/12 09:23:10;;;;;;;33.15;22.77;;;;;;;22.76;96.04;101231.25;5004792;28;20045;-74
2023/09/12 09:25:51;;;;;;;32.25;23.40;;;;;;;22.87;96.82;101232.28;5003970;28;20042;-74
2023/09/12 09:28:20;;;;;;;32.55;21.85;;;;;;;22.91;97.56;101228.34;5003403;28;20049;-75
2023/09/12 09:30:51;;;;;;;29.48;22.13;;;;;;;22.95;96.79;101238.75;4996162;28;20045;-75
2023/09/12 09:33:19;;;;;;;35.50;22.88;;;;;;;23.06;96.59;101237.06;5009053;28;20044;-75
2023/09/12 09:35:48;;;;;;;27.33;19.35;;;;;;;23.35;95.88;101228.63;5006366;28;20148;-74
2023/09/12 09:38:20;;;;;;;24.75;19.02;;;;;;;23.51;93.77;101220.16;5005093;28;20052;-75
2023/09/12 09:40:48;;;;;;;27.90;19.75;;;;;;;23.48;90.85;101223.97;5003483;28;20156;-75
2023/09/12 09:43:22;;;;;;;23.10;18.23;;;;;;;23.42;89.13;101217.25;5002937;28;20244;-75
2023/09/12 09:45:49;;;;;;;22.38;17.75;;;;;;;23.40;89.67;101207.59;5006584;28;20050;-75
2023/09/12 09:48:28;;;;;;;23.83;16.83;;;;;;;23.36;89.75;101204.28;5006403;28;20715;-75
2023/09/12 09:51:03;;;;;;;29.95;16.85;;;;;;;23.41;89.36;101191.31;5003678;28;20069;-75
2023/09/12 09:53:34;;;;;;;17.67;14.10;;;;;;;23.49;87.13;101198.78;5001032;28;20169;-75
2023/09/12 09:56:12;;;;;;;16.83;13.02;;;;;;;23.54;85.20;101193.03;5002573;28;20053;-75
2023/09/12 09:58:55;;;;;;;16.45;13.93;;;;;;;23.52;84.99;101201.22;4997247;28;20521;-75
2023/09/12 10:01:30;;;;;;;20.05;14.80;;;;;;;23.56;86.42;101202.69;5003549;28;20458;-75
2023/09/12 10:04:01;;;;;;;21.15;14.45;;;;;;;23.65;84.07;101208.34;4997236;28;20046;-75
2023/09/12 10:06:32;;;;;;;18.60;14.57;;;;;;;23.75;85.25;101206.63;5002230;28;20048;-75
2023/09/12 10:09:00;;;;;;;19.33;13.30;;;;;;;23.82;85.24;101210.50;5035636;28;20045;-75
2023/09/12 10:11:32;;;;;;;27.70;14.95;;;;;;;23.91;84.56;101200.81;5003751;28;20077;-75
2023/09/12 10:14:04;;;;;;;24.65;15.15;;;;;;;23.93;85.38;101204.25;5004071;28;20057;-75
2023/09/12 10:16:33;;;;;;;25.33;15.25;;;;;;;23.93;86.89;101198.00;5006362;28;20038;-75
2023/09/12 10:19:25;;;;;;;23.15;16.80;;;;;;;24.02;87.57;101208.91;5017948;28;20045;-76
2023/09/12 10:22:25;;;;;;;19.80;12.90;;;;;;;24.16;87.51;101206.91;5004428;28;20672;-75
2023/09/12 10:24:56;;;;;;;41.40;14.93;;;;;;;24.25;88.01;101218.78;5000326;28;20049;-75
2023/09/12 10:27:25;;;;;;;23.30;12.82;;;;;;;24.34;87.71;101216.16;5019572;28;20077;-75
2023/09/12 10:29:53;;;;;;;41.28;13.70;;;;;;;24.46;86.08;101211.63;5019117;28;20064;-75
2023/09/12 10:32:22;;;;;;;16.13;11.43;;;;;;;24.57;81.47;101207.16;5007719;28;20473;-75
2023/09/12 10:34:52;;;;;;;13.57;10.65;;;;;;;24.59;81.08;101208.75;4996148;28;20109;-75
2023/09/12 10:37:25;;;;;;;20.05;11.48;;;;;;;24.66;81.75;101203.69;5018891;28;20057;-75
2023/09/12 10:39:53;;;;;;;17.33;13.18;;;;;;;24.70;79.13;101204.31;5015379;28;20475;-75
2023/09/12 10:42:24;;;;;;;14.40;10.60;;;;;;;24.73;78.87;101202.22;5000570;28;20499;-75
2023/09/12 10:44:51;;;;;;;21.63;12.02;;;;;;;24.62;81.32;101196.84;5002037;28;20289;-75
2023/09/12 10:47:19;;;;;;;18.10;13.02;;;;;;;24.48;81.49;101203.38;5001103;28;20053;-75
2023/09/12 10:49:48;;;;;;;15.57;10.95;;;;;;;24.58;82.57;101196.25;5004610;28;20121;-76
2023/09/12 10:52:26;;;;;;;18.10;11.18;;;;;;;24.66;82.26;101201.00;5015619;28;20073;-75
2023/09/12 10:54:53;;;;;;;13.95;10.68;;;;;;;24.79;82.83;101196.28;5003696;28;20046;-75
2023/09/12 10:57:21;;;;;;;12.48;9.82;;;;;;;24.93;77.76;101196.94;5003316;28;20617;-75
2023/09/12 11:00:04;;;;;;;10.57;8.00;;;;;;;25.03;76.71;101189.78;5003222;28;20273;-75
2023/09/12 11:02:39;;;;;;;11.13;7.88;;;;;;;25.09;77.24;101180.31;5002118;28;20097;-75
2023/09/12 11:05:27;;;;;;;7.82;4.38;;;;;;;25.05;77.88;101185.09;5003600;28;20591;-75
2023/09/12 11:08:03;;;;;;;9.90;7.13;;;;;;;25.01;77.35;101180.13;5002974;28;20045;-75
2023/09/12 11:10:32;;;;;;;9.40;6.20;;;;;;;24.94;74.94;101187.88;5015950;28;20041;-75